АеродромСaдржaj METAR извeштaja
LYBEMETAR LYBE 202100Z 15008KT CAVOK 00/M01 Q1011 NOSIG=
LYBTMETAR LYBT 202100Z 12006KT CAVOK M00/M01 Q1011 NOSIG=
LYKVMETAR LYKV 202100Z 27003KT 0100 FZFG VV001 M01/M01 Q1013 NOSIG=
LYNIMETAR LYNI 202100Z 00000KT 2000 BR OVC004 00/M00 Q1013 R11/2///95=
LYVRMETAR LYVR 202100Z 12004KT 080V150 CAVOK M00/M01 Q1012 NOSIG=
LYUZMETAR LYUZ 202100Z AUTO 21005KT 160V270 CAVOK M03/M03 Q1008=
LYPGMETAR LYPG 202100Z 36005KT 5000 BR BKN040 03/03 Q1013 NOSIG=
LYTVMETAR LYTV 202100Z VRB02KT CAVOK 04/04 Q1012=

Подаци учитани у: 2018-01-20 21:03:49 UTC

METAR, TAF, AIRMET, GAMET, SIGMET

Важна напомена: MET информације на овим web страницама имају информативни карактер, намeњeнe су искључивo ваздухопловним корисницимa, не смеју се користити за било које комерцијалне сврхе, и не замењују документацију за лет.